Date,TemperatureHighF,TemperatureAvgF,TemperatureLowF,DewpointHighF,DewpointAvgF,DewpointLowF,HumidityHigh,HumidityAvg,HumidityLow,PressureMaxIn,PressureMinIn,WindSpeedMaxMPH,WindSpeedAvgMPH,GustSpeedMaxMPH,PrecipitationSumIn
2013-2-1,44.6,34.8,27.2,38.0,33.6,27.0,99,95,74,30.49,30.23,7,0,8,0.00
2013-2-2,47.2,32.3,22.8,39.0,29.9,22.0,100,92,64,30.54,30.32,7,0,11,0.01
2013-2-3,44.9,30.1,-90.0,36.0,27.9,-90.0,100,92,69,30.32,30.19,3,0,6,0.00
2013-2-4,46.1,32.3,-90.0,38.0,29.9,-90.0,100,92,66,30.21,30.04,3,0,7,0.00
2013-2-5,50.1,36.5,31.2,40.0,34.1,31.0,98,92,53,30.03,29.85,5,0,12,0.08
2013-2-6,42.0,34.8,31.2,38.0,33.5,30.0,99,95,81,30.11,29.99,4,0,6,0.01
2013-2-7,40.8,34.6,30.6,36.0,32.9,30.0,98,93,80,30.03,29.94,4,0,7,0.04
2013-2-8,35.7,32.9,29.2,34.0,31.7,29.0,98,95,92,30.11,30.02,8,1,8,0.07
2013-2-9,33.2,30.3,26.2,30.0,28.8,26.0,98,94,86,30.21,30.07,6,0,8,0.00
2013-2-10,36.2,29.7,24.6,31.0,27.6,24.0,98,92,80,30.31,30.21,2,0,5,0.02
2013-2-11,39.6,32.9,29.2,33.0,30.1,27.0,97,90,74,30.27,30.21,2,0,4,0.01
2013-2-12,39.7,34.7,32.5,36.0,33.2,32.0,98,94,85,30.34,30.23,2,0,2,0.00
2013-2-13,43.7,37.8,27.6,37.0,34.4,27.0,98,88,72,30.36,30.19,8,2,15,0.00
2013-2-14,41.7,32.2,23.6,34.0,29.5,23.0,98,90,68,30.58,30.37,3,0,7,0.00
2013-2-15,50.1,37.1,28.8,36.0,32.4,28.0,97,85,52,30.58,30.30,7,0,8,0.00
2013-2-16,50.5,35.5,26.6,39.0,32.7,26.0,98,90,59,30.30,29.96,6,0,16,0.12
2013-2-17,38.1,33.5,31.0,35.0,31.6,30.0,98,92,85,30.14,30.00,5,1,11,0.05
2013-2-18,39.6,32.5,24.0,32.0,29.3,23.0,98,88,69,30.15,29.81,4,1,7,0.05
2013-2-19,37.3,33.0,28.8,35.0,31.2,27.0,97,93,84,29.89,29.71,3,0,7,0.03
2013-2-20,38.8,31.3,22.4,31.0,27.1,21.0,97,86,55,30.04,29.89,5,1,10,0.01
2013-2-21,34.0,28.7,21.1,32.0,27.0,20.0,97,93,82,30.11,30.04,5,0,5,0.00
2013-2-22,35.2,33.2,31.3,34.0,32.3,31.0,98,96,92,30.08,29.76,1,0,2,0.03
2013-2-23,35.9,31.7,28.8,33.0,29.4,27.0,98,91,81,30.27,29.78,0,0,0,0.01
2013-2-24,40.7,31.6,26.8,33.0,29.1,26.0,98,91,68,30.39,30.17,0,0,0,0.09
2013-2-25,39.4,32.3,27.3,35.0,30.5,26.0,97,93,83,30.19,30.01,0,0,0,0.14
2013-2-26,36.9,31.5,27.7,31.0,28.1,26.0,96,87,70,30.36,30.20,0,0,0,0.05
2013-2-27,45.9,32.5,25.4,37.0,29.4,24.0,98,89,60,30.37,30.30,2,0,3,0.58
2013-2-28,39.2,34.5,32.6,36.0,33.6,32.0,98,96,89,30.46,30.33,1,0,2,0.55